createdAt,value
2018-07-19T00:00:44.893Z,84.65
2018-07-19T00:01:44.929Z,83.79
2018-07-19T00:02:44.967Z,83.50
2018-07-19T00:03:45.008Z,83.69
2018-07-19T00:04:45.044Z,83.50
2018-07-19T00:05:45.081Z,83.60
2018-07-19T00:06:45.119Z,82.74
2018-07-19T00:07:45.165Z,82.54
2018-07-19T00:08:45.194Z,82.45
2018-07-19T00:09:45.235Z,82.12
2018-07-19T00:10:45.271Z,81.45
2018-07-19T00:11:45.309Z,81.26
2018-07-19T00:12:45.347Z,81.55
2018-07-19T00:13:45.384Z,80.30
2018-07-19T00:14:45.424Z,80.59
2018-07-19T00:15:45.458Z,80.40
2018-07-19T00:16:45.499Z,79.73
2018-07-19T00:17:45.537Z,79.83
2018-07-19T00:18:45.577Z,80.21
2018-07-19T00:19:45.619Z,79.73
2018-07-19T00:20:45.650Z,79.73
2018-07-19T00:21:45.697Z,80.21
2018-07-19T00:22:45.731Z,80.30
2018-07-19T00:23:45.764Z,79.64
2018-07-19T00:24:45.802Z,79.64
2018-07-19T00:25:45.840Z,79.73
2018-07-19T00:26:45.877Z,79.73
2018-07-19T00:27:45.916Z,79.64
2018-07-19T00:28:45.953Z,79.35
2018-07-19T00:29:45.989Z,79.35
2018-07-19T00:30:46.040Z,79.16
2018-07-19T00:31:46.065Z,79.54
2018-07-19T00:32:46.102Z,78.78
2018-07-19T00:33:46.154Z,78.49
2018-07-19T00:34:46.179Z,78.30
2018-07-19T00:35:46.216Z,77.82
2018-07-19T00:36:46.256Z,77.72
2018-07-19T00:37:46.291Z,77.53
2018-07-19T00:38:46.330Z,77.44
2018-07-19T00:39:46.365Z,77.44
2018-07-19T00:40:46.403Z,77.40
2018-07-19T00:41:46.444Z,77.15
2018-07-19T00:42:46.484Z,76.77
2018-07-19T00:43:46.518Z,76.39
2018-07-19T00:44:46.554Z,76.64
2018-07-19T00:45:46.593Z,76.35
2018-07-19T00:46:46.632Z,76.25
2018-07-19T00:47:46.668Z,75.78
2018-07-19T00:48:46.707Z,76.57
2018-07-19T00:49:46.744Z,75.96
2018-07-19T00:50:46.782Z,75.87
2018-07-19T00:51:46.818Z,75.49
2018-07-19T00:52:46.858Z,75.49
2018-07-19T00:53:46.897Z,75.20
2018-07-19T00:54:46.932Z,74.91
2018-07-19T00:55:46.970Z,74.34
2018-07-19T00:56:47.008Z,74.44
2018-07-19T00:57:47.045Z,74.91
2018-07-19T00:58:47.084Z,74.44
2018-07-19T00:59:47.135Z,73.86
2018-07-19T01:00:47.156Z,74.34
2018-07-19T01:01:47.194Z,74.53
2018-07-19T01:02:47.233Z,74.82
2018-07-19T01:03:47.277Z,74.91
2018-07-19T01:04:47.310Z,74.44
2018-07-19T01:05:47.346Z,74.63
2018-07-19T01:06:47.382Z,75.01
2018-07-19T01:07:47.420Z,74.82
2018-07-19T01:08:47.457Z,74.24
2018-07-19T01:09:47.496Z,74.63
2018-07-19T01:10:47.533Z,74.05
2018-07-19T01:11:47.569Z,73.29
2018-07-19T01:12:47.606Z,73.67
2018-07-19T01:13:47.645Z,73.77
2018-07-19T01:14:47.682Z,73.58
2018-07-19T01:15:47.723Z,73.10
2018-07-19T01:16:47.757Z,72.81
2018-07-19T01:17:47.798Z,72.91
2018-07-19T01:18:47.833Z,73.10
2018-07-19T01:19:47.873Z,73.19
2018-07-19T01:20:47.915Z,73.10
2018-07-19T01:21:47.944Z,73.10
2018-07-19T01:22:47.982Z,73.29
2018-07-19T01:23:48.021Z,71.92
2018-07-19T01:24:48.057Z,72.30
2018-07-19T01:25:48.103Z,72.49
2018-07-19T01:26:48.133Z,72.20
2018-07-19T01:27:48.168Z,72.39
2018-07-19T01:28:48.206Z,71.67
2018-07-19T01:29:48.245Z,71.53
2018-07-19T01:30:48.279Z,71.25
2018-07-19T01:31:48.320Z,70.96
2018-07-19T01:32:48.354Z,71.53
2018-07-19T01:33:48.443Z,70.20
2018-07-19T01:34:48.430Z,70.48
2018-07-19T01:35:48.467Z,70.29
2018-07-19T01:36:48.504Z,70.58
2018-07-19T01:37:48.541Z,70.29
2018-07-19T01:38:48.579Z,70.48
2018-07-19T01:39:48.616Z,70.77
2018-07-19T01:40:48.653Z,70.10
2018-07-19T01:41:48.695Z,69.91
2018-07-19T01:42:48.729Z,69.72
2018-07-19T01:43:48.765Z,70.58
2018-07-19T01:44:48.802Z,69.62
2018-07-19T01:45:48.839Z,69.43
2018-07-19T01:46:48.878Z,69.34
2018-07-19T01:47:48.914Z,69.43
2018-07-19T01:48:48.951Z,69.24
2018-07-19T01:49:48.988Z,69.43
2018-07-19T01:50:49.028Z,69.24
2018-07-19T01:51:49.063Z,69.24
2018-07-19T01:52:49.099Z,69.53
2018-07-19T01:53:49.139Z,69.15
2018-07-19T01:54:49.176Z,69.34
2018-07-19T01:55:49.212Z,69.34
2018-07-19T01:56:49.249Z,68.96
2018-07-19T01:57:49.289Z,69.11
2018-07-19T01:58:49.327Z,68.86
2018-07-19T01:59:49.362Z,68.54
2018-07-19T02:00:49.401Z,69.02
2018-07-19T02:01:49.442Z,68.54
2018-07-19T02:02:49.473Z,68.96
2018-07-19T02:03:49.508Z,68.82
2018-07-19T02:04:49.548Z,67.97
2018-07-19T02:05:49.584Z,68.26
2018-07-19T02:06:49.620Z,67.77
2018-07-19T02:07:49.657Z,68.06
2018-07-19T02:08:49.694Z,67.97
2018-07-19T02:09:49.730Z,67.97
2018-07-19T02:10:49.785Z,67.58
2018-07-19T02:11:49.806Z,67.77
2018-07-19T02:12:49.842Z,67.30
2018-07-19T02:13:49.883Z,67.11
2018-07-19T02:14:49.925Z,67.01
2018-07-19T02:15:49.954Z,67.21
2018-07-19T02:16:49.995Z,66.44
2018-07-19T02:17:50.028Z,66.44
2018-07-19T02:18:50.066Z,66.72
2018-07-19T02:19:50.102Z,66.92
2018-07-19T02:20:50.140Z,66.63
2018-07-19T02:21:50.175Z,66.06
2018-07-19T02:22:50.213Z,65.77
2018-07-19T02:23:50.252Z,65.20
2018-07-19T02:24:50.295Z,65.30
2018-07-19T02:25:50.325Z,65.20
2018-07-19T02:26:50.364Z,65.39
2018-07-19T02:27:50.399Z,65.20
2018-07-19T02:28:50.436Z,65.39
2018-07-19T02:29:50.473Z,65.39
2018-07-19T02:30:50.510Z,65.96
2018-07-19T02:31:50.547Z,65.48
2018-07-19T02:32:50.584Z,64.81
2018-07-19T02:33:50.621Z,64.72
2018-07-19T02:34:50.665Z,64.34
2018-07-19T02:35:50.695Z,64.62
2018-07-19T02:36:50.741Z,63.96
2018-07-19T02:37:50.768Z,63.54
2018-07-19T02:38:50.807Z,63.96
2018-07-19T02:39:50.841Z,64.05
2018-07-19T02:40:50.878Z,64.31
2018-07-19T02:41:50.921Z,64.05
2018-07-19T02:42:50.952Z,64.12
2018-07-19T02:43:51.020Z,63.83
2018-07-19T02:44:51.025Z,64.02
2018-07-19T02:45:51.062Z,63.64
2018-07-19T02:46:51.100Z,63.16
2018-07-19T02:47:51.136Z,62.68
2018-07-19T02:48:51.173Z,62.68
2018-07-19T02:49:51.211Z,62.59
2018-07-19T02:50:51.252Z,62.49
2018-07-19T02:51:51.285Z,63.16
2018-07-19T02:52:51.320Z,62.78
2018-07-19T02:53:51.359Z,62.78
2018-07-19T02:54:51.395Z,62.30
2018-07-19T02:55:51.431Z,62.30
2018-07-19T02:56:51.468Z,62.30
2018-07-19T02:57:51.506Z,62.21
2018-07-19T02:58:51.543Z,61.73
2018-07-19T02:59:51.582Z,62.02
2018-07-19T03:00:51.617Z,62.30
2018-07-19T03:01:51.653Z,61.83
2018-07-19T03:02:51.691Z,62.02
2018-07-19T03:03:51.727Z,61.92
2018-07-19T03:04:51.770Z,61.83
2018-07-19T03:05:51.801Z,61.92
2018-07-19T03:06:51.841Z,61.92
2018-07-19T03:07:51.874Z,61.83
2018-07-19T03:08:51.911Z,61.92
2018-07-19T03:09:51.950Z,62.02
2018-07-19T03:10:51.986Z,61.73
2018-07-19T03:11:52.024Z,61.44
2018-07-19T03:12:52.056Z,62.02
2018-07-19T03:13:52.094Z,61.63
2018-07-19T03:14:52.129Z,61.83
2018-07-19T03:15:52.166Z,61.63
2018-07-19T03:16:52.203Z,61.92
2018-07-19T03:17:52.242Z,61.83
2018-07-19T03:18:52.278Z,62.49
2018-07-19T03:19:52.312Z,62.49
2018-07-19T03:20:52.351Z,61.92
2018-07-19T03:21:52.388Z,61.63
2018-07-19T03:22:52.426Z,61.63
2018-07-19T03:23:52.459Z,61.25
2018-07-19T03:24:52.499Z,61.63
2018-07-19T03:25:52.535Z,61.25
2018-07-19T03:26:52.571Z,60.87
2018-07-19T03:27:52.608Z,61.63
2018-07-19T03:28:52.644Z,61.63
2018-07-19T03:29:52.683Z,61.35
2018-07-19T03:30:52.764Z,61.25
2018-07-19T03:31:52.760Z,60.97
2018-07-19T03:32:52.805Z,61.16
2018-07-19T03:33:52.828Z,61.73
2018-07-19T03:34:52.864Z,61.54
2018-07-19T03:35:52.906Z,61.83
2018-07-19T03:36:52.941Z,62.40
2018-07-19T03:37:52.975Z,62.49
2018-07-19T03:38:53.011Z,62.30
2018-07-19T03:39:53.048Z,62.68
2018-07-19T03:40:53.084Z,62.21
2018-07-19T03:41:53.120Z,62.59
2018-07-19T03:42:53.157Z,62.40
2018-07-19T03:43:53.194Z,62.49
2018-07-19T03:44:53.232Z,62.49
2018-07-19T03:45:53.270Z,62.49
2018-07-19T03:46:53.302Z,62.49
2018-07-19T03:47:53.342Z,62.30
2018-07-19T03:48:53.377Z,62.30
2018-07-19T03:49:53.413Z,62.68
2018-07-19T03:50:53.451Z,62.40
2018-07-19T03:51:53.487Z,62.78
2018-07-19T03:52:53.524Z,62.59
2018-07-19T03:53:53.560Z,62.40
2018-07-19T03:54:53.597Z,62.68
2018-07-19T03:55:53.633Z,62.40
2018-07-19T03:56:53.671Z,61.92
2018-07-19T03:57:53.707Z,62.30
2018-07-19T03:58:53.744Z,62.30
2018-07-19T03:59:53.779Z,62.49
2018-07-19T04:00:53.815Z,62.40
2018-07-19T04:01:53.864Z,62.78
2018-07-19T04:02:53.896Z,62.78
2018-07-19T04:03:53.927Z,63.35
2018-07-19T04:04:53.963Z,63.83
2018-07-19T04:05:54.000Z,63.54
2018-07-19T04:06:54.035Z,64.59
2018-07-19T04:07:54.075Z,64.88
2018-07-19T04:08:54.110Z,65.55
2018-07-19T04:09:54.157Z,65.55
2018-07-19T04:10:54.183Z,65.45
2018-07-19T04:11:54.220Z,65.93
2018-07-19T04:12:54.255Z,65.55
2018-07-19T04:13:54.292Z,65.36
2018-07-19T04:14:54.329Z,66.06
2018-07-19T04:15:54.364Z,65.30
2018-07-19T04:16:54.403Z,65.36
2018-07-19T04:17:54.437Z,65.58
2018-07-19T04:18:54.476Z,65.83
2018-07-19T04:19:54.519Z,65.96
2018-07-19T04:20:54.547Z,65.39
2018-07-19T04:21:54.586Z,65.58
2018-07-19T04:22:54.621Z,65.67
2018-07-19T04:23:54.657Z,65.77
2018-07-19T04:24:54.694Z,66.06
2018-07-19T04:25:54.739Z,66.06
2018-07-19T04:26:54.768Z,66.25
2018-07-19T04:27:54.804Z,66.06
2018-07-19T04:28:54.845Z,66.63
2018-07-19T04:29:54.879Z,67.01
2018-07-19T04:30:54.916Z,67.21
2018-07-19T04:31:54.950Z,67.58
2018-07-19T04:32:54.987Z,67.49
2018-07-19T04:33:55.032Z,67.40
2018-07-19T04:34:55.061Z,67.77
2018-07-19T04:35:55.096Z,68.16
2018-07-19T04:36:55.135Z,68.35
2018-07-19T04:37:55.173Z,67.68
2018-07-19T04:38:55.212Z,67.68
2018-07-19T04:39:55.245Z,68.16
2018-07-19T04:40:55.280Z,68.82
2018-07-19T04:41:55.320Z,69.11
2018-07-19T04:42:55.360Z,69.31
2018-07-19T04:43:55.390Z,69.40
2018-07-19T04:44:55.429Z,69.68
2018-07-19T04:45:55.465Z,69.31
2018-07-19T04:46:55.502Z,70.07
2018-07-19T04:47:55.542Z,70.45
2018-07-19T04:48:55.584Z,70.48
2018-07-19T04:49:55.613Z,71.02
2018-07-19T04:50:55.651Z,71.53
2018-07-19T04:51:55.684Z,72.20
2018-07-19T04:52:55.724Z,72.11
2018-07-19T04:53:55.758Z,72.58
2018-07-19T04:54:55.797Z,73.25
2018-07-19T04:55:55.834Z,72.97
2018-07-19T04:56:55.869Z,73.25
2018-07-19T04:57:55.907Z,72.97
2018-07-19T04:58:55.944Z,73.25
2018-07-19T04:59:55.981Z,73.44
2018-07-19T05:00:56.019Z,73.35
2018-07-19T05:01:56.061Z,74.49
2018-07-19T05:02:56.093Z,74.21
2018-07-19T05:03:56.128Z,74.53
2018-07-19T05:04:56.166Z,75.16
2018-07-19T05:05:56.203Z,75.45
2018-07-19T05:06:56.240Z,76.31
2018-07-19T05:07:56.277Z,76.25
2018-07-19T05:08:56.314Z,75.20
2018-07-19T05:09:56.352Z,76.54
2018-07-19T05:10:56.390Z,76.45
2018-07-19T05:11:56.427Z,77.11
2018-07-19T05:12:56.464Z,76.73
2018-07-19T05:13:56.508Z,77.01
2018-07-19T05:14:56.538Z,77.59
2018-07-19T05:15:56.573Z,77.59
2018-07-19T05:16:56.614Z,77.69
2018-07-19T05:17:56.652Z,77.97
2018-07-19T05:18:56.685Z,77.78
2018-07-19T05:19:56.721Z,78.01
2018-07-19T05:20:56.758Z,78.30
2018-07-19T05:21:56.796Z,78.78
2018-07-19T05:22:56.834Z,80.11
2018-07-19T05:23:56.871Z,80.11
2018-07-19T05:24:56.916Z,80.69
2018-07-19T05:25:56.948Z,81.36
2018-07-19T05:26:56.983Z,81.74
2018-07-19T05:27:57.020Z,82.54
2018-07-19T05:28:57.057Z,83.69
2018-07-19T05:29:57.096Z,83.31
2018-07-19T05:30:57.135Z,84.84
2018-07-19T05:31:57.170Z,85.99
2018-07-19T05:32:57.209Z,87.95
2018-07-19T05:33:57.246Z,89.38
2018-07-19T05:34:57.284Z,88.62
2018-07-19T05:35:57.320Z,89.29
2018-07-19T05:36:57.359Z,88.43
2018-07-19T05:37:57.395Z,89.19
2018-07-19T05:38:57.434Z,88.81
2018-07-19T05:39:57.471Z,89.38
2018-07-19T05:40:57.513Z,89.48
2018-07-19T05:41:57.555Z,89.86
2018-07-19T05:42:57.596Z,89.76
2018-07-19T05:43:57.624Z,90.09
2018-07-19T05:44:57.662Z,90.34
2018-07-19T05:45:57.698Z,89.38
2018-07-19T05:46:57.738Z,88.66
2018-07-19T05:47:57.773Z,89.38
2018-07-19T05:48:57.815Z,89.72
2018-07-19T05:49:57.852Z,90.48
2018-07-19T05:50:57.896Z,90.39
2018-07-19T05:51:57.927Z,90.00
2018-07-19T05:52:57.965Z,90.67
2018-07-19T05:53:58.002Z,89.62
2018-07-19T05:54:58.040Z,90.77
2018-07-19T05:55:58.076Z,90.96
2018-07-19T05:56:58.121Z,91.53
2018-07-19T05:57:58.153Z,91.25
2018-07-19T05:58:58.193Z,91.96
2018-07-19T05:59:58.235Z,91.19
2018-07-19T06:00:58.267Z,92.63
2018-07-19T06:01:58.306Z,91.77
2018-07-19T06:02:58.345Z,93.30
2018-07-19T06:03:58.381Z,91.19
2018-07-19T06:04:58.431Z,92.92
2018-07-19T06:05:58.460Z,93.35
2018-07-19T06:06:58.498Z,93.35
2018-07-19T06:07:58.535Z,93.93
2018-07-19T06:08:58.574Z,94.40
2018-07-19T06:09:58.614Z,94.02
2018-07-19T06:10:58.653Z,94.98
2018-07-19T06:11:58.689Z,96.13
2018-07-19T06:12:58.728Z,96.18
2018-07-19T06:13:58.765Z,96.94
2018-07-19T06:14:58.806Z,95.98
2018-07-19T06:15:58.891Z,95.60
2018-07-19T06:16:58.883Z,96.75
2018-07-19T06:17:58.919Z,96.66
2018-07-19T06:18:58.961Z,97.28
2018-07-19T06:19:58.999Z,97.71
2018-07-19T06:20:59.038Z,98.43
2018-07-19T06:21:59.076Z,98.33
2018-07-19T06:22:59.115Z,98.43
2018-07-19T06:23:59.153Z,98.33
2018-07-19T06:24:59.193Z,98.33
2018-07-19T06:25:59.230Z,98.05
2018-07-19T06:26:59.267Z,98.53
2018-07-19T06:27:59.306Z,99.20
2018-07-19T06:28:59.353Z,99.29
2018-07-19T06:29:59.384Z,98.77
2018-07-19T06:30:59.423Z,98.86
2018-07-19T06:31:59.461Z,99.44
2018-07-19T06:32:59.502Z,99.15
2018-07-19T06:33:59.539Z,99.25
2018-07-19T06:34:59.579Z,99.44
2018-07-19T06:35:59.621Z,99.15
2018-07-19T06:36:59.656Z,99.82
2018-07-19T06:37:59.695Z,99.99
2018-07-19T06:38:59.738Z,99.40
2018-07-19T06:39:59.775Z,99.99
2018-07-19T06:40:59.813Z,99.87
2018-07-19T06:41:59.852Z,99.58
2018-07-19T06:42:59.891Z,99.87
2018-07-19T06:43:59.931Z,99.68
2018-07-19T06:44:59.970Z,99.30
2018-07-19T06:46:00.015Z,99.97
2018-07-19T06:47:00.152Z,99.87
2018-07-19T06:48:00.088Z,99.68
2018-07-19T06:49:00.127Z,99.25
2018-07-19T06:50:00.166Z,99.83
2018-07-19T06:51:00.206Z,98.58
2018-07-19T06:52:00.249Z,98.68
2018-07-19T06:53:00.284Z,98.77
2018-07-19T06:54:00.373Z,99.73
2018-07-19T06:55:00.364Z,98.86
2018-07-19T06:56:00.404Z,98.39
2018-07-19T06:57:00.440Z,98.58
2018-07-19T06:58:00.479Z,97.91
2018-07-19T06:59:00.522Z,98.48
2018-07-19T07:00:00.557Z,98.48
2018-07-19T07:01:00.599Z,97.71
2018-07-19T07:02:00.637Z,97.62
2018-07-19T07:03:00.678Z,96.94
2018-07-19T07:04:00.720Z,95.94
2018-07-19T07:05:00.757Z,95.55
2018-07-19T07:06:00.795Z,95.75
2018-07-19T07:07:00.842Z,95.26
2018-07-19T07:08:00.875Z,95.07
2018-07-19T07:09:00.989Z,94.40
2018-07-19T07:10:00.957Z,93.63
2018-07-19T07:11:00.995Z,92.47
2018-07-19T07:12:01.036Z,91.17
2018-07-19T07:13:01.079Z,91.36
2018-07-19T07:14:01.112Z,91.46
2018-07-19T07:15:01.173Z,91.08
2018-07-19T07:16:01.192Z,91.27
2018-07-19T07:17:01.240Z,91.17
2018-07-19T07:18:01.272Z,89.35
2018-07-19T07:19:01.313Z,87.71
2018-07-19T07:20:01.356Z,86.27
2018-07-19T07:21:01.391Z,86.27
2018-07-19T07:22:01.434Z,87.85
2018-07-19T07:23:01.470Z,87.18
2018-07-19T07:24:01.508Z,84.29
2018-07-19T07:25:01.551Z,84.10
2018-07-19T07:26:01.589Z,84.48
2018-07-19T07:27:01.633Z,83.91
2018-07-19T07:28:01.668Z,83.23
2018-07-19T07:29:01.707Z,82.89
2018-07-19T07:30:01.749Z,82.98
2018-07-19T07:31:01.791Z,82.41
2018-07-19T07:32:01.826Z,80.00
2018-07-19T07:33:01.868Z,78.46
2018-07-19T07:34:01.940Z,77.98
2018-07-19T07:35:01.951Z,79.13
2018-07-19T07:36:01.996Z,77.50
2018-07-19T07:37:02.027Z,76.44
2018-07-19T07:38:02.071Z,73.84
2018-07-19T07:39:02.252Z,72.78
2018-07-19T07:40:02.148Z,72.88
2018-07-19T07:41:02.190Z,74.22
2018-07-19T07:42:02.229Z,76.28
2018-07-19T07:43:02.270Z,75.99
2018-07-19T07:44:02.321Z,75.99
2018-07-19T07:45:02.351Z,77.06
2018-07-19T07:46:02.392Z,74.84
2018-07-19T07:47:02.433Z,74.07
2018-07-19T07:48:02.473Z,74.45
2018-07-19T07:49:02.518Z,72.66
2018-07-19T07:50:02.553Z,72.66
2018-07-19T07:51:02.605Z,76.23
2018-07-19T07:52:02.633Z,73.62
2018-07-19T07:53:02.678Z,73.14
2018-07-19T07:54:02.714Z,71.60
2018-07-19T07:55:02.754Z,69.57
2018-07-19T07:56:02.797Z,70.06
2018-07-19T07:57:02.837Z,70.25
2018-07-19T07:58:02.885Z,71.50
2018-07-19T07:59:02.917Z,71.83
2018-07-19T08:00:02.955Z,70.76
2018-07-19T08:01:02.996Z,73.08
2018-07-19T08:02:03.043Z,70.48
2018-07-19T08:03:03.078Z,71.06
2018-07-19T08:04:03.118Z,70.38
2018-07-19T08:05:03.160Z,70.48
2018-07-19T08:06:03.200Z,67.88
2018-07-19T08:07:03.249Z,67.23
2018-07-19T08:08:03.279Z,67.43
2018-07-19T08:09:03.325Z,68.77
2018-07-19T08:10:03.364Z,68.68
2018-07-19T08:11:03.405Z,67.52
2018-07-19T08:12:03.444Z,66.66
2018-07-19T08:13:03.487Z,65.59
2018-07-19T08:14:03.529Z,65.50
2018-07-19T08:15:03.576Z,64.63
2018-07-19T08:16:03.608Z,65.30
2018-07-19T08:17:03.650Z,66.49
2018-07-19T08:18:03.692Z,66.49
2018-07-19T08:19:03.735Z,64.95
2018-07-19T08:20:03.772Z,64.28
2018-07-19T08:21:03.814Z,63.79
2018-07-19T08:22:03.864Z,63.21
2018-07-19T08:23:03.896Z,62.63
2018-07-19T08:24:03.974Z,63.31
2018-07-19T08:25:03.979Z,63.21
2018-07-19T08:26:04.021Z,62.54
2018-07-19T08:27:04.069Z,62.44
2018-07-19T08:28:04.224Z,60.89
2018-07-19T08:29:04.180Z,61.38
2018-07-19T08:30:04.185Z,61.57
2018-07-19T08:31:04.234Z,60.13
2018-07-19T08:32:04.266Z,59.55
2018-07-19T08:33:04.313Z,59.45
2018-07-19T08:34:04.349Z,59.28
2018-07-19T08:35:04.392Z,59.06
2018-07-19T08:36:04.493Z,58.61
2018-07-19T08:37:04.472Z,58.61
2018-07-19T08:38:04.514Z,58.03
2018-07-19T08:39:04.556Z,58.42
2018-07-19T08:40:04.613Z,60.06
2018-07-19T08:41:04.637Z,57.45
2018-07-19T08:42:04.691Z,57.26
2018-07-19T08:43:04.723Z,57.06
2018-07-19T08:44:04.761Z,57.16
2018-07-19T08:45:04.808Z,56.29
2018-07-19T08:46:04.845Z,56.58
2018-07-19T08:47:04.888Z,55.52
2018-07-19T08:48:04.928Z,57.35
2018-07-19T08:49:04.968Z,57.29
2018-07-19T08:50:05.009Z,56.03
2018-07-19T08:51:05.052Z,55.45
2018-07-19T08:52:05.097Z,53.91
2018-07-19T08:53:05.134Z,53.42
2018-07-19T08:54:05.177Z,52.65
2018-07-19T08:55:05.225Z,53.81
2018-07-19T08:56:05.258Z,53.42
2018-07-19T08:57:05.301Z,52.97
2018-07-19T08:58:05.357Z,52.48
2018-07-19T08:59:05.383Z,51.71
2018-07-19T09:00:05.429Z,52.39
2018-07-19T09:01:05.466Z,51.71
2018-07-19T09:02:05.506Z,51.81
2018-07-19T09:03:05.550Z,50.35
2018-07-19T09:04:05.590Z,50.84
2018-07-19T09:05:05.632Z,49.70
2018-07-19T09:06:05.682Z,48.90
2018-07-19T09:07:05.716Z,52.31
2018-07-19T09:08:05.755Z,50.28
2018-07-19T09:09:05.797Z,50.28
2018-07-19T09:10:05.841Z,50.86
2018-07-19T09:11:05.884Z,50.09
2018-07-19T09:12:05.934Z,48.93
2018-07-19T09:13:05.971Z,49.41
2018-07-19T09:14:06.060Z,49.22
2018-07-19T09:15:06.048Z,48.16
2018-07-19T09:16:06.091Z,48.93
2018-07-19T09:17:06.141Z,48.93
2018-07-19T09:18:06.177Z,48.25
2018-07-19T09:19:06.222Z,48.37
2018-07-19T09:20:06.255Z,49.12
2018-07-19T09:21:06.299Z,48.35
2018-07-19T09:22:06.339Z,49.70
2018-07-19T09:23:06.381Z,49.34
2018-07-19T09:24:06.424Z,48.18
2018-07-19T09:25:06.463Z,47.21
2018-07-19T09:26:06.506Z,46.73
2018-07-19T09:27:06.548Z,46.92
2018-07-19T09:28:06.593Z,47.99
2018-07-19T09:29:06.631Z,47.21
2018-07-19T09:30:06.672Z,47.21
2018-07-19T09:31:06.724Z,46.83
2018-07-19T09:32:06.765Z,47.11
2018-07-19T09:33:06.798Z,47.79
2018-07-19T09:34:06.841Z,48.27
2018-07-19T09:35:06.892Z,49.15
2018-07-19T09:36:06.924Z,49.34
2018-07-19T09:37:07.015Z,48.47
2018-07-19T09:38:07.009Z,48.95
2018-07-19T09:39:07.054Z,49.17
2018-07-19T09:40:07.091Z,48.39
2018-07-19T09:41:07.134Z,47.72
2018-07-19T09:42:07.177Z,46.63
2018-07-19T09:43:07.222Z,46.46
2018-07-19T09:44:07.259Z,47.52
2018-07-19T09:45:07.303Z,48.11
2018-07-19T09:46:07.344Z,49.07
2018-07-19T09:47:07.387Z,47.52
2018-07-19T09:48:07.428Z,47.14
2018-07-19T09:49:07.475Z,48.01
2018-07-19T09:50:07.512Z,48.01
2018-07-19T09:51:07.570Z,48.11
2018-07-19T09:52:07.598Z,48.08
2018-07-19T09:53:07.639Z,48.18
2018-07-19T09:54:07.719Z,48.01
2018-07-19T09:55:07.725Z,48.30
2018-07-19T09:56:07.766Z,49.27
2018-07-19T09:57:07.815Z,49.07
2018-07-19T09:58:07.849Z,48.20
2018-07-19T09:59:07.892Z,48.39
2018-07-19T10:00:07.936Z,48.11
2018-07-19T10:01:07.989Z,48.59
2018-07-19T10:02:08.018Z,48.69
2018-07-19T10:03:08.071Z,48.20
2018-07-19T10:04:08.113Z,47.81
2018-07-19T10:05:08.145Z,49.46
2018-07-19T10:06:08.186Z,50.04
2018-07-19T10:07:08.229Z,49.17
2018-07-19T10:08:08.270Z,48.88
2018-07-19T10:09:08.314Z,49.37
2018-07-19T10:10:08.365Z,48.42
2018-07-19T10:11:08.397Z,48.22
2018-07-19T10:12:08.459Z,47.84
2018-07-19T10:13:08.486Z,47.55
2018-07-19T10:14:08.528Z,47.43
2018-07-19T10:15:08.568Z,47.81
2018-07-19T10:16:08.610Z,48.30
2018-07-19T10:17:08.651Z,48.30
2018-07-19T10:18:08.693Z,48.30
2018-07-19T10:19:08.736Z,48.97
2018-07-19T10:20:08.779Z,48.11
2018-07-19T10:21:08.819Z,49.17
2018-07-19T10:22:08.867Z,48.20
2018-07-19T10:23:08.903Z,48.59
2018-07-19T10:24:08.947Z,48.30
2018-07-19T10:25:08.990Z,48.30
2018-07-19T10:26:09.029Z,48.20
2018-07-19T10:27:09.073Z,47.81
2018-07-19T10:28:09.114Z,48.11
2018-07-19T10:29:09.157Z,48.39
2018-07-19T10:30:09.199Z,48.01
2018-07-19T10:31:09.246Z,47.33
2018-07-19T10:32:09.447Z,47.43
2018-07-19T10:33:09.328Z,48.01
2018-07-19T10:34:09.403Z,46.46
2018-07-19T10:35:09.411Z,47.52
2018-07-19T10:36:09.454Z,47.14
2018-07-19T10:37:09.497Z,47.24
2018-07-19T10:38:09.541Z,46.66
2018-07-19T10:39:09.579Z,47.14
2018-07-19T10:40:09.623Z,47.74
2018-07-19T10:41:09.663Z,47.45
2018-07-19T10:42:09.706Z,47.64
2018-07-19T10:43:09.858Z,47.84
2018-07-19T10:44:09.790Z,46.58
2018-07-19T10:45:09.834Z,46.29
2018-07-19T10:46:09.878Z,46.19
2018-07-19T10:47:09.918Z,46.29
2018-07-19T10:48:09.960Z,46.19
2018-07-19T10:49:10.011Z,47.45
2018-07-19T10:50:10.043Z,47.74
2018-07-19T10:51:10.088Z,46.48
2018-07-19T10:52:10.137Z,46.39
2018-07-19T10:53:10.169Z,46.87
2018-07-19T10:54:10.212Z,46.39
2018-07-19T10:55:10.256Z,46.48
2018-07-19T10:56:10.296Z,45.32
2018-07-19T10:57:10.340Z,45.15
2018-07-19T10:58:10.390Z,45.05
2018-07-19T10:59:10.424Z,45.15
2018-07-19T11:00:10.468Z,45.13
2018-07-19T11:01:10.510Z,44.26
2018-07-19T11:02:10.551Z,45.15
2018-07-19T11:03:10.599Z,44.93
2018-07-19T11:04:10.644Z,45.13
2018-07-19T11:05:10.679Z,44.93
2018-07-19T11:06:10.720Z,45.92
2018-07-19T11:07:10.823Z,44.86
2018-07-19T11:08:10.812Z,45.15
2018-07-19T11:09:10.849Z,46.60
2018-07-19T11:10:10.892Z,46.80
2018-07-19T11:11:10.938Z,45.15
2018-07-19T11:12:10.978Z,45.17
2018-07-19T11:13:11.020Z,45.25
2018-07-19T11:14:11.060Z,44.10
2018-07-19T11:15:11.103Z,43.60
2018-07-19T11:16:11.145Z,43.60
2018-07-19T11:17:11.188Z,44.27
2018-07-19T11:18:11.239Z,44.47
2018-07-19T11:19:11.272Z,43.89
2018-07-19T11:20:11.318Z,43.79
2018-07-19T11:21:11.359Z,43.50
2018-07-19T11:22:11.401Z,44.18
2018-07-19T11:23:11.445Z,43.31
2018-07-19T11:24:11.486Z,44.01
2018-07-19T11:25:11.532Z,43.82
2018-07-19T11:26:11.571Z,43.82
2018-07-19T11:27:11.617Z,43.60
2018-07-19T11:28:11.655Z,43.79
2018-07-19T11:29:11.698Z,43.99
2018-07-19T11:30:11.741Z,45.05
2018-07-19T11:31:11.784Z,43.70
2018-07-19T11:32:11.825Z,43.60
2018-07-19T11:33:11.869Z,43.60
2018-07-19T11:34:11.911Z,43.50
2018-07-19T11:35:11.994Z,43.82
2018-07-19T11:36:11.996Z,43.21
2018-07-19T11:37:12.040Z,43.72
2018-07-19T11:38:12.083Z,43.33
2018-07-19T11:39:12.136Z,43.02
2018-07-19T11:40:12.168Z,43.60
2018-07-19T11:41:12.210Z,43.02
2018-07-19T11:42:12.253Z,44.96
2018-07-19T11:43:12.295Z,43.99
2018-07-19T11:44:12.346Z,44.98
2018-07-19T11:45:12.381Z,44.09
2018-07-19T11:46:12.424Z,45.07
2018-07-19T11:47:12.469Z,43.82
2018-07-19T11:48:12.509Z,43.43
2018-07-19T11:49:12.551Z,43.52
2018-07-19T11:50:12.620Z,43.13
2018-07-19T11:51:12.638Z,43.13
2018-07-19T11:52:12.679Z,42.94
2018-07-19T11:53:12.722Z,43.13
2018-07-19T11:54:12.768Z,43.12
2018-07-19T11:55:12.807Z,44.01
2018-07-19T11:56:12.851Z,45.17
2018-07-19T11:57:12.893Z,43.91
2018-07-19T11:58:12.935Z,44.20
2018-07-19T11:59:12.980Z,44.98
2018-07-19T12:00:13.021Z,43.91
2018-07-19T12:01:13.066Z,44.98
2018-07-19T12:02:13.107Z,45.07
2018-07-19T12:03:13.156Z,45.00
2018-07-19T12:04:13.199Z,45.20
2018-07-19T12:05:13.238Z,44.61
2018-07-19T12:06:13.280Z,45.00
2018-07-19T12:07:13.326Z,44.32
2018-07-19T12:08:13.364Z,43.64
2018-07-19T12:09:13.409Z,43.26
2018-07-19T12:10:13.450Z,43.93
2018-07-19T12:11:13.500Z,42.48
2018-07-19T12:12:13.536Z,42.57
2018-07-19T12:13:13.581Z,42.19
2018-07-19T12:14:13.662Z,42.67
2018-07-19T12:15:13.680Z,42.38
2018-07-19T12:16:13.706Z,42.38
2018-07-19T12:17:13.750Z,42.57
2018-07-19T12:18:13.862Z,42.48
2018-07-19T12:19:13.836Z,42.19
2018-07-19T12:20:13.878Z,42.69
2018-07-19T12:21:13.922Z,41.92
2018-07-19T12:22:13.965Z,41.82
2018-07-19T12:23:14.015Z,42.02
2018-07-19T12:24:14.052Z,42.69
2018-07-19T12:25:14.094Z,42.50
2018-07-19T12:26:14.145Z,42.21
2018-07-19T12:27:14.180Z,41.82
2018-07-19T12:28:14.224Z,41.05
2018-07-19T12:29:14.265Z,41.24
2018-07-19T12:30:14.320Z,40.26
2018-07-19T12:31:14.464Z,40.75
2018-07-19T12:32:14.397Z,40.85
2018-07-19T12:33:14.440Z,40.85
2018-07-19T12:34:14.486Z,41.14
2018-07-19T12:35:14.527Z,41.72
2018-07-19T12:36:14.572Z,41.43
2018-07-19T12:37:14.620Z,41.33
2018-07-19T12:38:14.755Z,41.63
2018-07-19T12:39:14.700Z,42.50
2018-07-19T12:40:14.742Z,41.14
2018-07-19T12:41:14.792Z,40.75
2018-07-19T12:42:14.830Z,41.92
2018-07-19T12:43:14.879Z,41.92
2018-07-19T12:44:14.913Z,42.50
2018-07-19T12:45:14.956Z,42.69
2018-07-19T12:46:15.000Z,42.40
2018-07-19T12:47:15.049Z,41.14
2018-07-19T12:48:15.086Z,41.82
2018-07-19T12:49:15.127Z,41.63
2018-07-19T12:50:15.174Z,41.43
2018-07-19T12:51:15.217Z,41.92
2018-07-19T12:52:15.260Z,42.60
2018-07-19T12:53:15.303Z,42.13